M I D A S
Marine Information and Data Acquisition System
Tripno 1512 of the Zeeleeuw from 2008-06-27 07:43:53 to 2008-06-27 10:21:05
Back to CruiseResearch ActivitiesStationsMapUnderway DataData graphs

EquipmentUnitsComments
TimeDGPSUTC
LatitudeDGPSDM.mWGS84
LongitudeDGPSDM.mWGS84
SpeedMeteo Stationm/sRelative wind speed
DirectionMeteo StationdegRelative wind direction
TemperatureMeteo Stationdeg CelciusAir temperature
PressureMeteo StationPaAtmospheric pressure
HumidityMeteo Station%Relative humidity
Missing or incorrect values are displayed as -999
Metereological data collected by the RV Zeeleeuw from 2008-06-27 07:43:57 to 2008-06-27 10:23:23
Time Latitude Longitude Speed Direction Temperature Pressure Humidity
2008-06-27 07:45 51°13.624 2°56.03 -999 -999 -999 -999 -999
2008-06-27 07:46 51°13.649 2°55.934 -999 -999 -999 -999 -999
2008-06-27 07:47 51°13.694 2°55.826 -999 -999 -999 -999 -999
2008-06-27 07:48 51°13.722 2°55.742 -999 -999 -999 -999 -999
2008-06-27 07:49 51°13.73 2°55.741 -999 -999 -999 -999 -999
2008-06-27 07:50 51°13.719 2°55.721 -999 -999 -999 -999 -999
2008-06-27 07:51 51°13.77 2°55.697 -999 -999 -999 -999 -999
2008-06-27 07:52 51°13.881 2°55.602 -999 -999 -999 -999 -999
2008-06-27 07:53 51°13.989 2°55.531 -999 -999 -999 -999 -999
2008-06-27 07:54 51°14.09 2°55.466 -999 -999 -999 -999 -999
2008-06-27 07:55 51°14.184 2°55.373 -999 -999 -999 -999 -999
2008-06-27 07:56 51°14.282 2°55.215 -999 -999 -999 -999 -999
2008-06-27 07:57 51°14.395 2°55.014 -999 -999 -999 -999 -999
2008-06-27 07:58 51°14.555 2°54.843 -999 -999 -999 -999 -999
2008-06-27 07:59 51°14.722 2°54.678 -999 -999 -999 -999 -999
2008-06-27 08:00 51°14.888 2°54.512 -999 -999 -999 -999 -999
2008-06-27 08:01 51°15.059 2°54.361 -999 -999 -999 -999 -999
2008-06-27 08:02 51°15.229 2°54.208 -999 -999 -999 -999 -999
2008-06-27 08:03 51°15.399 2°54.053 -999 -999 -999 -999 -999
2008-06-27 08:04 51°15.57 2°53.894 -999 -999 -999 -999 -999
2008-06-27 08:05 51°15.741 2°53.737 -999 -999 -999 -999 -999
2008-06-27 08:06 51°15.912 2°53.579 -999 -999 -999 -999 -999
2008-06-27 08:07 51°16.086 2°53.427 -999 -999 -999 -999 -999
2008-06-27 08:08 51°16.256 2°53.271 -999 -999 -999 -999 -999
2008-06-27 08:09 51°16.426 2°53.119 -999 -999 -999 -999 -999
2008-06-27 08:10 51°16.597 2°52.963 -999 -999 -999 -999 -999
2008-06-27 08:11 51°16.778 2°52.831 -999 -999 -999 -999 -999
2008-06-27 08:12 51°16.96 2°52.704 -999 -999 -999 -999 -999
2008-06-27 08:13 51°17.144 2°52.587 -999 -999 -999 -999 -999
2008-06-27 08:14 51°17.339 2°52.517 -999 -999 -999 -999 -999
2008-06-27 08:15 51°17.544 2°52.535 -999 -999 -999 -999 -999
2008-06-27 08:16 51°17.749 2°52.544 -999 -999 -999 -999 -999
2008-06-27 08:17 51°17.954 2°52.536 -999 -999 -999 -999 -999
2008-06-27 08:18 51°18.16 2°52.516 -999 -999 -999 -999 -999
2008-06-27 08:19 51°18.368 2°52.502 -999 -999 -999 -999 -999
2008-06-27 08:20 51°18.574 2°52.491 -999 -999 -999 -999 -999
2008-06-27 08:21 51°18.781 2°52.505 -999 -999 -999 -999 -999
2008-06-27 08:22 51°18.988 2°52.537 -999 -999 -999 -999 -999
2008-06-27 08:23 51°19.19 2°52.567 -999 -999 -999 -999 -999
2008-06-27 08:24 51°19.297 2°52.532 -999 -999 -999 -999 -999
2008-06-27 08:25 51°19.301 2°52.444 -999 -999 -999 -999 -999
2008-06-27 08:26 51°19.313 2°52.347 -999 -999 -999 -999 -999
2008-06-27 08:27 51°19.309 2°52.254 -999 -999 -999 -999 -999
2008-06-27 08:28 51°19.311 2°52.205 -999 -999 -999 -999 -999
2008-06-27 08:29 51°19.313 2°52.188 -999 -999 -999 -999 -999
2008-06-27 08:30 51°19.308 2°52.19 -999 -999 -999 -999 -999
2008-06-27 08:31 51°19.294 2°52.173 -999 -999 -999 -999 -999
2008-06-27 08:32 51°19.279 2°52.149 -999 -999 -999 -999 -999
2008-06-27 08:33 51°19.27 2°52.14 -999 -999 -999 -999 -999
2008-06-27 08:34 51°19.262 2°52.143 -999 -999 -999 -999 -999
2008-06-27 08:35 51°19.256 2°52.146 -999 -999 -999 -999 -999
2008-06-27 08:36 51°19.249 2°52.151 -999 -999 -999 -999 -999
2008-06-27 08:37 51°19.244 2°52.156 -999 -999 -999 -999 -999
2008-06-27 08:38 51°19.241 2°52.164 -999 -999 -999 -999 -999
2008-06-27 08:39 51°19.238 2°52.172 -999 -999 -999 -999 -999
2008-06-27 08:40 51°19.236 2°52.18 -999 -999 -999 -999 -999
2008-06-27 08:41 51°19.236 2°52.183 -999 -999 -999 -999 -999
2008-06-27 08:42 51°19.24 2°52.172 -999 -999 -999 -999 -999
2008-06-27 08:43 51°19.249 2°52.166 -999 -999 -999 -999 -999
2008-06-27 08:44 51°19.261 2°52.164 -999 -999 -999 -999 -999
2008-06-27 08:45 51°19.277 2°52.166 -999 -999 -999 -999 -999
2008-06-27 08:46 51°19.29 2°52.172 -999 -999 -999 -999 -999
2008-06-27 08:47 51°19.302 2°52.185 -999 -999 -999 -999 -999
2008-06-27 08:48 51°19.313 2°52.197 -999 -999 -999 -999 -999
2008-06-27 08:49 51°19.323 2°52.202 -999 -999 -999 -999 -999
2008-06-27 08:50 51°19.329 2°52.189 -999 -999 -999 -999 -999
2008-06-27 08:51 51°19.328 2°52.161 -999 -999 -999 -999 -999
2008-06-27 08:52 51°19.315 2°52.128 -999 -999 -999 -999 -999
2008-06-27 08:53 51°19.296 2°52.095 -999 -999 -999 -999 -999
2008-06-27 08:54 51°19.283 2°52.061 -999 -999 -999 -999 -999
2008-06-27 08:55 51°19.278 2°52.044 -999 -999 -999 -999 -999
2008-06-27 08:56 51°19.275 2°52.038 -999 -999 -999 -999 -999
2008-06-27 08:57 51°19.271 2°52.04 -999 -999 -999 -999 -999
2008-06-27 08:58 51°19.268 2°52.049 -999 -999 -999 -999 -999
2008-06-27 08:59 51°19.264 2°52.063 -999 -999 -999 -999 -999
2008-06-27 09:00 51°19.261 2°52.08 -999 -999 -999 -999 -999
2008-06-27 09:01 51°19.258 2°52.099 -999 -999 -999 -999 -999
2008-06-27 09:02 51°19.251 2°52.118 -999 -999 -999 -999 -999
2008-06-27 09:03 51°19.243 2°52.133 -999 -999 -999 -999 -999
2008-06-27 09:04 51°19.234 2°52.142 -999 -999 -999 -999 -999
2008-06-27 09:05 51°19.225 2°52.15 -999 -999 -999 -999 -999
2008-06-27 09:06 51°19.217 2°52.158 -999 -999 -999 -999 -999
2008-06-27 09:07 51°19.196 2°52.143 -999 -999 -999 -999 -999
2008-06-27 09:08 51°19.15 2°52.2 -999 -999 -999 -999 -999
2008-06-27 09:09 51°19.135 2°52.404 -999 -999 -999 -999 -999
2008-06-27 09:10 51°19.118 2°52.648 -999 -999 -999 -999 -999
2008-06-27 09:11 51°19.068 2°52.802 -999 -999 -999 -999 -999
2008-06-27 09:12 51°19.01 2°52.905 -999 -999 -999 -999 -999
2008-06-27 09:13 51°18.936 2°52.941 -999 -999 -999 -999 -999
2008-06-27 09:14 51°18.858 2°52.983 -999 -999 -999 -999 -999
2008-06-27 09:15 51°18.787 2°52.97 -999 -999 -999 -999 -999
2008-06-27 09:16 51°18.738 2°52.905 -999 -999 -999 -999 -999
2008-06-27 09:17 51°18.686 2°52.837 -999 -999 -999 -999 -999
2008-06-27 09:18 51°18.646 2°52.788 -999 -999 -999 -999 -999
2008-06-27 09:19 51°18.629 2°52.752 -999 -999 -999 -999 -999
2008-06-27 09:20 51°18.631 2°52.71 -999 -999 -999 -999 -999
2008-06-27 09:21 51°18.639 2°52.705 -999 -999 -999 -999 -999
2008-06-27 09:22 51°18.646 2°52.714 -999 -999 -999 -999 -999
2008-06-27 09:23 51°18.652 2°52.728 -999 -999 -999 -999 -999
2008-06-27 09:24 51°18.658 2°52.74 -999 -999 -999 -999 -999
2008-06-27 09:25 51°18.662 2°52.754 -999 -999 -999 -999 -999
2008-06-27 09:26 51°18.666 2°52.768 -999 -999 -999 -999 -999
2008-06-27 09:27 51°18.669 2°52.781 -999 -999 -999 -999 -999
2008-06-27 09:28 51°18.672 2°52.794 -999 -999 -999 -999 -999
2008-06-27 09:29 51°18.675 2°52.807 -999 -999 -999 -999 -999
2008-06-27 09:30 51°18.678 2°52.819 -999 -999 -999 -999 -999
2008-06-27 09:31 51°18.681 2°52.832 -999 -999 -999 -999 -999
2008-06-27 09:32 51°18.684 2°52.844 -999 -999 -999 -999 -999
2008-06-27 09:33 51°18.686 2°52.857 -999 -999 -999 -999 -999
2008-06-27 09:34 51°18.687 2°52.868 -999 -999 -999 -999 -999
2008-06-27 09:35 51°18.689 2°52.881 -999 -999 -999 -999 -999
2008-06-27 09:36 51°18.69 2°52.892 -999 -999 -999 -999 -999
2008-06-27 09:37 51°18.69 2°52.904 -999 -999 -999 -999 -999
2008-06-27 09:38 51°18.69 2°52.914 -999 -999 -999 -999 -999
2008-06-27 09:39 51°18.69 2°52.925 -999 -999 -999 -999 -999
2008-06-27 09:40 51°18.69 2°52.936 -999 -999 -999 -999 -999
2008-06-27 09:41 51°18.69 2°52.946 -999 -999 -999 -999 -999
2008-06-27 09:42 51°18.69 2°52.955 -999 -999 -999 -999 -999
2008-06-27 09:43 51°18.69 2°52.964 -999 -999 -999 -999 -999
2008-06-27 09:44 51°18.69 2°52.972 -999 -999 -999 -999 -999
2008-06-27 09:45 51°18.689 2°52.981 -999 -999 -999 -999 -999
2008-06-27 09:46 51°18.688 2°52.989 -999 -999 -999 -999 -999
2008-06-27 09:47 51°18.687 2°52.998 -999 -999 -999 -999 -999
2008-06-27 09:48 51°18.689 2°53.008 -999 -999 -999 -999 -999
2008-06-27 09:49 51°18.712 2°53.044 -999 -999 -999 -999 -999
2008-06-27 09:50 51°18.699 2°53.121 -999 -999 -999 -999 -999
2008-06-27 09:51 51°18.641 2°53.116 -999 -999 -999 -999 -999
2008-06-27 09:52 51°18.545 2°53.031 -999 -999 -999 -999 -999
2008-06-27 09:53 51°18.409 2°52.914 -999 -999 -999 -999 -999
2008-06-27 09:54 51°18.266 2°52.79 -999 -999 -999 -999 -999
2008-06-27 09:55 51°18.121 2°52.671 -999 -999 -999 -999 -999
2008-06-27 09:56 51°17.964 2°52.591 -999 -999 -999 -999 -999
2008-06-27 09:57 51°17.806 2°52.515 -999 -999 -999 -999 -999
2008-06-27 09:58 51°17.646 2°52.454 -999 -999 -999 -999 -999
2008-06-27 09:59 51°17.486 2°52.394 -999 -999 -999 -999 -999
2008-06-27 10:00 51°17.323 2°52.371 -999 -999 -999 -999 -999
2008-06-27 10:01 51°17.159 2°52.389 -999 -999 -999 -999 -999
2008-06-27 10:02 51°17.004 2°52.469 -999 -999 -999 -999 -999
2008-06-27 10:03 51°16.856 2°52.583 -999 -999 -999 -999 -999
2008-06-27 10:04 51°16.71 2°52.702 -999 -999 -999 -999 -999
2008-06-27 10:05 51°16.563 2°52.82 -999 -999 -999 -999 -999
2008-06-27 10:06 51°16.415 2°52.937 -999 -999 -999 -999 -999
2008-06-27 10:07 51°16.27 2°53.067 -999 -999 -999 -999 -999
2008-06-27 10:08 51°16.123 2°53.192 -999 -999 -999 -999 -999
2008-06-27 10:09 51°15.974 2°53.311 -999 -999 -999 -999 -999
2008-06-27 10:10 51°15.825 2°53.428 -999 -999 -999 -999 -999
2008-06-27 10:11 51°15.676 2°53.548 -999 -999 -999 -999 -999
2008-06-27 10:12 51°15.528 2°53.664 -999 -999 -999 -999 -999
2008-06-27 10:13 51°15.379 2°53.781 -999 -999 -999 -999 -999
2008-06-27 10:14 51°15.232 2°53.898 -999 -999 -999 -999 -999
2008-06-27 10:15 51°15.085 2°54.016 -999 -999 -999 -999 -999
2008-06-27 10:16 51°14.939 2°54.136 -999 -999 -999 -999 -999
2008-06-27 10:17 51°14.807 2°54.291 -999 -999 -999 -999 -999
2008-06-27 10:18 51°14.683 2°54.457 -999 -999 -999 -999 -999
2008-06-27 10:19 51°14.566 2°54.633 -999 -999 -999 -999 -999
2008-06-27 10:20 51°14.46 2°54.825 -999 -999 -999 -999 -999
2008-06-27 10:21 51°14.364 2°55.032 -999 -999 -999 -999 -999
2008-06-27 10:22 51°14.276 2°55.221 -999 -999 -999 -999 -999
2008-06-27 10:23 51°14.175 2°55.365 -999 -999 -999 -999 -999